createdAt,value
2022-10-19T00:02:25.267Z,101921.47
2022-10-19T00:05:00.025Z,101919.69
2022-10-19T00:07:31.908Z,101909.59
2022-10-19T00:10:00.982Z,101911.63
2022-10-19T00:12:29.827Z,101903.56
2022-10-19T00:15:00.975Z,101896.66
2022-10-19T00:17:32.058Z,101896.78
2022-10-19T00:20:00.666Z,101896.88
2022-10-19T00:22:30.744Z,101894.31
2022-10-19T00:25:03.657Z,101911.09
2022-10-19T00:27:33.876Z,101905.81
2022-10-19T00:30:02.653Z,101907.69
2022-10-19T00:32:33.723Z,101911.19
2022-10-19T00:35:04.060Z,101910.22
2022-10-19T00:37:34.487Z,101900.56
2022-10-19T00:40:03.496Z,101904.91
2022-10-19T00:42:32.600Z,101902.28
2022-10-19T00:45:08.619Z,101904.06
2022-10-19T00:47:37.454Z,101896.03
2022-10-19T00:50:07.644Z,101896.22
2022-10-19T00:52:39.322Z,101890.19
2022-10-19T00:55:14.486Z,101879.03
2022-10-19T00:57:46.430Z,101877.25
2022-10-19T01:00:16.422Z,101871.50
2022-10-19T01:02:46.365Z,101872.56
2022-10-19T01:05:18.882Z,101880.59
2022-10-19T01:07:49.000Z,101875.59
2022-10-19T01:10:18.465Z,101886.44
2022-10-19T01:13:08.326Z,101892.66
2022-10-19T01:15:44.923Z,101894.56
2022-10-19T01:18:23.113Z,101890.41
2022-10-19T01:21:23.942Z,101886.16
2022-10-19T01:24:30.283Z,101887.22
2022-10-19T01:27:28.796Z,101886.69
2022-10-19T01:30:09.399Z,101884.13
2022-10-19T01:32:52.681Z,101895.59
2022-10-19T01:35:27.392Z,101909.69
2022-10-19T01:38:06.420Z,101900.91
2022-10-19T01:40:42.403Z,101894.63
2022-10-19T01:43:17.852Z,101900.78
2022-10-19T01:45:52.968Z,101891.97
2022-10-19T01:48:25.937Z,101884.88
2022-10-19T01:51:00.431Z,101872.59
2022-10-19T01:53:32.149Z,101864.53
2022-10-19T01:56:05.288Z,101850.84
2022-10-19T01:58:38.479Z,101830.50
2022-10-19T02:01:12.581Z,101818.44
2022-10-19T02:03:42.718Z,101807.19
2022-10-19T02:06:15.959Z,101800.72
2022-10-19T02:08:49.622Z,101775.38
2022-10-19T02:11:20.292Z,101766.06
2022-10-19T02:13:54.904Z,101768.59
2022-10-19T02:16:29.417Z,101766.66
2022-10-19T02:19:02.252Z,101764.88
2022-10-19T02:21:33.860Z,101747.19
2022-10-19T02:24:02.610Z,101746.97
2022-10-19T02:26:32.829Z,101741.34
2022-10-19T02:29:02.474Z,101719.41
2022-10-19T02:31:32.668Z,101730.03
2022-10-19T02:34:01.289Z,101726.28
2022-10-19T02:36:30.197Z,101725.56
2022-10-19T02:39:00.167Z,101721.22
2022-10-19T02:41:38.231Z,101726.72
2022-10-19T02:44:15.296Z,101730.66
2022-10-19T02:46:51.502Z,101742.63
2022-10-19T02:49:21.405Z,101734.47
2022-10-19T02:52:02.032Z,101729.50
2022-10-19T02:54:33.190Z,101725.03
2022-10-19T02:57:05.035Z,101719.81
2022-10-19T02:59:33.568Z,101706.38
2022-10-19T03:02:04.063Z,101697.78
2022-10-19T03:04:33.347Z,101695.13
2022-10-19T03:07:03.905Z,101687.94
2022-10-19T03:09:34.325Z,101673.84
2022-10-19T03:12:04.464Z,101669.47
2022-10-19T03:14:33.675Z,101667.25
2022-10-19T03:17:05.196Z,101669.59
2022-10-19T03:19:34.005Z,101668.00
2022-10-19T03:22:02.916Z,101676.16
2022-10-19T03:24:32.462Z,101669.38
2022-10-19T03:27:02.373Z,101684.31
2022-10-19T03:29:31.020Z,101681.47
2022-10-19T03:32:00.404Z,101666.28
2022-10-19T03:34:30.702Z,101661.84
2022-10-19T03:37:01.494Z,101652.94
2022-10-19T03:39:30.074Z,101658.22
2022-10-19T03:41:58.892Z,101660.34
2022-10-19T03:44:27.709Z,101669.25
2022-10-19T03:46:56.482Z,101665.78
2022-10-19T03:49:27.306Z,101665.88
2022-10-19T03:51:57.191Z,101680.19
2022-10-19T03:54:27.593Z,101695.22
2022-10-19T03:56:57.334Z,101692.78
2022-10-19T03:59:26.068Z,101693.63
2022-10-19T04:01:54.913Z,101679.53
2022-10-19T04:04:23.499Z,101684.94
2022-10-19T04:06:54.143Z,101674.56
2022-10-19T04:09:25.501Z,101669.38
2022-10-19T04:11:53.955Z,101668.97
2022-10-19T04:14:32.042Z,101663.22
2022-10-19T04:17:01.655Z,101672.31
2022-10-19T04:19:31.904Z,101691.09
2022-10-19T04:22:01.717Z,101689.28
2022-10-19T04:24:31.718Z,101692.00
2022-10-19T04:27:00.150Z,101686.09
2022-10-19T04:29:30.091Z,101673.66
2022-10-19T04:31:59.746Z,101667.28
2022-10-19T04:34:28.762Z,101659.66
2022-10-19T04:36:59.638Z,101651.75
2022-10-19T04:39:28.111Z,101655.69
2022-10-19T04:41:58.300Z,101648.56
2022-10-19T04:44:26.948Z,101651.66
2022-10-19T04:46:55.403Z,101648.69
2022-10-19T04:49:23.938Z,101646.88
2022-10-19T04:51:52.345Z,101654.09
2022-10-19T04:54:20.855Z,101649.53
2022-10-19T04:56:50.246Z,101635.47
2022-10-19T04:59:20.318Z,101633.78
2022-10-19T05:01:48.797Z,101627.50
2022-10-19T05:04:17.299Z,101637.44
2022-10-19T05:06:46.065Z,101633.97
2022-10-19T05:09:15.135Z,101619.69
2022-10-19T05:11:43.504Z,101605.69
2022-10-19T05:14:11.944Z,101618.81
2022-10-19T05:16:42.468Z,101620.06
2022-10-19T05:19:14.516Z,101621.88
2022-10-19T05:21:43.097Z,101629.50
2022-10-19T05:24:14.331Z,101642.22
2022-10-19T05:26:45.356Z,101639.66
2022-10-19T05:29:16.012Z,101639.66
2022-10-19T05:31:46.082Z,101642.91
2022-10-19T05:34:14.977Z,101643.31
2022-10-19T05:36:43.326Z,101624.59
2022-10-19T05:39:16.299Z,101620.25
2022-10-19T05:41:47.576Z,101617.38
2022-10-19T05:44:17.604Z,101611.47
2022-10-19T05:46:48.201Z,101607.22
2022-10-19T05:49:18.730Z,101627.34
2022-10-19T05:51:48.122Z,101633.47
2022-10-19T05:54:17.516Z,101628.38
2022-10-19T05:56:46.132Z,101626.38
2022-10-19T05:59:20.888Z,101630.31
2022-10-19T06:01:51.629Z,101630.53
2022-10-19T06:04:20.286Z,101623.56
2022-10-19T06:06:49.170Z,101621.53
2022-10-19T06:09:17.668Z,101621.34
2022-10-19T06:11:46.295Z,101624.63
2022-10-19T06:14:16.478Z,101619.22
2022-10-19T06:16:46.402Z,101614.59
2022-10-19T06:19:16.550Z,101612.06
2022-10-19T06:21:47.104Z,101601.34
2022-10-19T06:27:56.517Z,101612.69
2022-10-19T06:30:25.334Z,101615.31
2022-10-19T06:32:54.318Z,101619.78
2022-10-19T06:35:24.416Z,101619.69
2022-10-19T06:37:52.730Z,101619.47
2022-10-19T06:40:21.275Z,101607.91
2022-10-19T06:42:49.788Z,101607.72
2022-10-19T06:45:18.661Z,101603.94
2022-10-19T06:50:16.131Z,101595.59
2022-10-19T06:52:46.355Z,101596.75
2022-10-19T06:55:14.884Z,101590.81
2022-10-19T06:57:43.293Z,101600.56
2022-10-19T07:00:13.953Z,101590.81
2022-10-19T07:02:42.332Z,101596.13
2022-10-19T07:05:11.520Z,101595.91
2022-10-19T07:07:39.889Z,101579.19
2022-10-19T07:10:10.665Z,101587.03
2022-10-19T07:12:41.087Z,101584.38
2022-10-19T07:15:11.819Z,101583.53
2022-10-19T07:17:40.177Z,101593.38
2022-10-19T07:20:09.176Z,101598.88
2022-10-19T07:22:37.777Z,101606.41
2022-10-19T07:25:12.630Z,101596.88
2022-10-19T07:27:43.824Z,101588.75
2022-10-19T07:30:13.053Z,101580.03
2022-10-19T07:32:46.786Z,101579.91
2022-10-19T07:35:16.286Z,101588.75
2022-10-19T07:37:44.578Z,101586.09
2022-10-19T07:40:14.679Z,101585.22
2022-10-19T07:42:44.664Z,101583.44
2022-10-19T07:45:13.470Z,101590.31
2022-10-19T07:47:41.740Z,101586.09
2022-10-19T07:50:10.926Z,101583.00
2022-10-19T07:52:39.688Z,101583.22
2022-10-19T07:55:08.779Z,101586.81
2022-10-19T07:57:38.036Z,101584.38
2022-10-19T08:00:11.523Z,101579.06
2022-10-19T08:02:59.724Z,101584.38
2022-10-19T08:05:29.337Z,101579.00
2022-10-19T08:07:58.119Z,101573.56
2022-10-19T08:10:26.942Z,101574.63
2022-10-19T08:12:55.436Z,101589.59
2022-10-19T08:15:26.631Z,101589.34
2022-10-19T08:17:55.388Z,101603.25
2022-10-19T08:20:23.980Z,101594.75
2022-10-19T08:22:56.453Z,101589.88
2022-10-19T08:25:28.007Z,101585.94
2022-10-19T08:27:56.239Z,101578.31
2022-10-19T08:30:26.865Z,101574.84
2022-10-19T08:32:55.932Z,101570.28
2022-10-19T08:35:24.393Z,101575.00
2022-10-19T08:37:53.939Z,101569.34
2022-10-19T08:40:26.403Z,101574.00
2022-10-19T08:43:03.779Z,101573.03
2022-10-19T08:45:44.350Z,101577.66
2022-10-19T08:48:26.619Z,101578.59
2022-10-19T08:50:56.285Z,101587.88
2022-10-19T08:53:35.482Z,101592.63
2022-10-19T08:56:26.933Z,101594.31
2022-10-19T08:59:13.420Z,101581.72
2022-10-19T09:01:48.212Z,101575.91
2022-10-19T09:04:24.745Z,101586.47
2022-10-19T09:07:09.652Z,101599.72
2022-10-19T09:12:21.994Z,101569.31
2022-10-19T09:14:58.382Z,101580.69
2022-10-19T09:17:30.292Z,101586.81
2022-10-19T09:20:00.382Z,101586.38
2022-10-19T09:22:34.101Z,101575.19
2022-10-19T09:25:10.354Z,101581.41
2022-10-19T09:27:41.632Z,101590.19
2022-10-19T09:30:20.345Z,101586.63
2022-10-19T09:32:53.761Z,101583.97
2022-10-19T09:35:29.615Z,101587.53
2022-10-19T09:37:58.771Z,101585.13
2022-10-19T09:40:29.126Z,101585.53
2022-10-19T09:42:59.266Z,101593.59
2022-10-19T09:45:38.181Z,101594.66
2022-10-19T09:48:29.427Z,101592.22
2022-10-19T09:51:00.825Z,101582.94
2022-10-19T09:53:30.767Z,101572.34
2022-10-19T09:56:02.580Z,101568.22
2022-10-19T09:58:33.257Z,101563.78
2022-10-19T10:01:04.003Z,101556.59
2022-10-19T10:03:36.496Z,101561.75
2022-10-19T10:06:08.360Z,101555.94
2022-10-19T10:08:39.568Z,101567.28
2022-10-19T10:11:12.334Z,101562.06
2022-10-19T10:13:43.161Z,101554.13
2022-10-19T10:16:16.935Z,101558.38
2022-10-19T10:18:55.816Z,101558.38
2022-10-19T10:21:27.308Z,101546.97
2022-10-19T10:24:18.187Z,101528.31
2022-10-19T10:26:49.728Z,101520.38
2022-10-19T10:29:22.188Z,101492.09
2022-10-19T10:31:57.042Z,101480.03
2022-10-19T10:34:46.074Z,101491.69
2022-10-19T10:37:23.955Z,101479.50
2022-10-19T10:39:56.668Z,101487.44
2022-10-19T10:42:31.452Z,101480.47
2022-10-19T10:45:01.208Z,101463.63
2022-10-19T10:47:31.370Z,101455.59
2022-10-19T10:50:06.017Z,101438.09
2022-10-19T10:52:37.331Z,101443.19
2022-10-19T10:55:18.897Z,101449.09
2022-10-19T10:57:51.602Z,101455.59
2022-10-19T11:00:22.560Z,101453.66
2022-10-19T11:02:58.038Z,101455.34
2022-10-19T11:05:32.573Z,101473.03
2022-10-19T11:08:09.194Z,101470.91
2022-10-19T11:10:48.393Z,101472.00
2022-10-19T11:13:26.128Z,101467.53
2022-10-19T11:15:57.799Z,101474.34
2022-10-19T11:18:31.901Z,101465.25
2022-10-19T11:21:08.487Z,101462.38
2022-10-19T11:23:48.238Z,101461.31
2022-10-19T11:26:37.022Z,101451.56
2022-10-19T11:29:25.743Z,101435.81
2022-10-19T11:31:57.084Z,101430.19
2022-10-19T11:34:53.877Z,101418.72
2022-10-19T11:37:30.420Z,101402.75
2022-10-19T11:40:09.835Z,101374.47
2022-10-19T11:42:58.498Z,101368.41
2022-10-19T11:45:44.384Z,101373.97
2022-10-19T11:48:34.403Z,101375.00
2022-10-19T11:51:20.952Z,101372.69
2022-10-19T11:54:08.193Z,101361.88
2022-10-19T11:57:02.542Z,101362.84
2022-10-19T11:59:44.417Z,101389.31
2022-10-19T12:02:29.423Z,101363.81
2022-10-19T12:05:01.771Z,101367.63
2022-10-19T12:07:45.433Z,101347.50
2022-10-19T12:10:30.827Z,101341.03
2022-10-19T12:13:04.158Z,101342.00
2022-10-19T12:15:36.974Z,101339.47
2022-10-19T12:18:13.485Z,101339.47
2022-10-19T12:20:47.937Z,101349.31
2022-10-19T12:27:01.691Z,101329.31
2022-10-19T12:29:33.776Z,101336.72
2022-10-19T12:32:06.782Z,101333.03
2022-10-19T12:34:48.801Z,101300.66
2022-10-19T12:37:26.668Z,101286.47
2022-10-19T12:39:58.390Z,101320.13
2022-10-19T12:42:31.374Z,101328.06
2022-10-19T12:45:30.693Z,101340.44
2022-10-19T12:48:21.310Z,101326.38
2022-10-19T12:51:21.098Z,101314.53
2022-10-19T12:53:50.675Z,101292.84
2022-10-19T12:56:27.289Z,101278.97
2022-10-19T12:59:25.138Z,101276.34
2022-10-19T13:02:00.707Z,101292.31
2022-10-19T13:09:42.985Z,101276.66
2022-10-19T13:12:47.293Z,101273.28
2022-10-19T13:15:59.359Z,101246.22
2022-10-19T13:19:07.559Z,101247.25
2022-10-19T13:21:53.198Z,101237.66
2022-10-19T13:27:41.409Z,101235.31
2022-10-19T13:31:04.861Z,101231.50
2022-10-19T13:33:49.123Z,101251.09
2022-10-19T13:36:17.903Z,101236.06
2022-10-19T13:39:03.864Z,101228.03
2022-10-19T13:41:49.811Z,101235.75
2022-10-19T13:44:25.380Z,101225.78
2022-10-19T13:47:29.852Z,101224.84
2022-10-19T13:50:31.690Z,101205.84
2022-10-19T13:53:21.495Z,101196.81
2022-10-19T13:56:10.296Z,101193.44
2022-10-19T13:59:10.975Z,101190.38
2022-10-19T14:01:55.246Z,101188.25
2022-10-19T14:04:36.523Z,101175.03
2022-10-19T14:07:14.002Z,101151.66
2022-10-19T14:10:04.360Z,101157.78
2022-10-19T14:18:06.160Z,101133.78
2022-10-19T14:20:35.720Z,101129.22
2022-10-19T14:23:20.888Z,101113.56
2022-10-19T14:25:54.416Z,101124.03
2022-10-19T14:28:24.165Z,101126.22
2022-10-19T14:31:00.905Z,101132.06
2022-10-19T14:33:33.675Z,101144.88
2022-10-19T14:36:03.281Z,101140.63
2022-10-19T14:38:36.462Z,101123.41
2022-10-19T14:44:46.384Z,101086.41
2022-10-19T14:49:52.554Z,101101.41
2022-10-19T15:07:40.446Z,101045.94
2022-10-19T15:29:26.571Z,101061.72
2022-10-19T15:32:38.529Z,101047.06
2022-10-19T15:39:24.497Z,101027.19
2022-10-19T15:42:20.055Z,101009.53
2022-10-19T15:44:52.411Z,101020.72
2022-10-19T15:47:27.233Z,101008.22
2022-10-19T15:50:33.740Z,101007.78
2022-10-19T15:53:35.336Z,101006.06
2022-10-19T15:58:34.896Z,100991.66
2022-10-19T16:01:03.409Z,101000.81
2022-10-19T16:03:39.863Z,100990.88
2022-10-19T16:06:15.204Z,100980.88
2022-10-19T16:08:47.516Z,100970.06
2022-10-19T16:11:34.337Z,100940.47
2022-10-19T16:14:14.127Z,100940.09
2022-10-19T16:16:45.433Z,100922.41
2022-10-19T16:19:15.466Z,100914.25
2022-10-19T16:21:49.321Z,100918.38
2022-10-19T16:24:20.069Z,100918.16
2022-10-19T16:26:48.958Z,100910.22
2022-10-19T16:29:28.238Z,100896.84
2022-10-19T16:31:57.678Z,100889.75
2022-10-19T16:34:28.552Z,100878.19
2022-10-19T16:36:56.967Z,100875.91
2022-10-19T16:39:27.112Z,100867.13
2022-10-19T16:41:55.484Z,100863.50
2022-10-19T16:44:25.173Z,100845.56
2022-10-19T16:46:53.566Z,100840.16
2022-10-19T16:49:23.438Z,100826.78
2022-10-19T16:51:56.286Z,100820.53
2022-10-19T16:54:30.680Z,100818.47
2022-10-19T16:56:59.668Z,100791.88
2022-10-19T16:59:34.287Z,100792.72
2022-10-19T17:12:33.503Z,100807.50
2022-10-19T17:19:30.503Z,100798.47
2022-10-19T17:25:34.799Z,100803.16
2022-10-19T17:28:10.460Z,100767.28
2022-10-19T17:30:43.822Z,100779.94
2022-10-19T17:33:12.580Z,100767.28
2022-10-19T17:35:43.961Z,100773.91
2022-10-19T17:38:14.778Z,100765.97
2022-10-19T17:40:45.198Z,100757.91
2022-10-19T17:43:15.397Z,100755.38
2022-10-19T17:48:17.627Z,100765.88
2022-10-19T17:50:47.293Z,100770.44
2022-10-19T17:53:51.134Z,100760.81
2022-10-19T17:56:53.824Z,100747.72
2022-10-19T17:59:55.610Z,100728.34
2022-10-19T18:02:25.567Z,100744.31
2022-10-19T18:05:03.025Z,100733.72
2022-10-19T18:07:44.715Z,100747.56
2022-10-19T18:10:29.391Z,100739.63
2022-10-19T18:13:10.226Z,100732.28
2022-10-19T18:15:41.738Z,100713.59
2022-10-19T18:18:37.042Z,100699.72
2022-10-19T18:21:39.977Z,100692.03
2022-10-19T18:24:23.368Z,100701.41
2022-10-19T18:27:23.020Z,100690.13
2022-10-19T18:30:29.805Z,100678.53
2022-10-19T18:33:12.382Z,100679.53
2022-10-19T18:35:51.707Z,100670.84
2022-10-19T18:38:37.966Z,100689.97
2022-10-19T18:41:25.799Z,100688.41
2022-10-19T18:44:05.900Z,100692.75
2022-10-19T18:46:40.840Z,100687.09
2022-10-19T18:49:10.089Z,100688.03
2022-10-19T18:51:40.590Z,100673.84
2022-10-19T18:54:09.384Z,100672.03
2022-10-19T18:56:38.614Z,100662.03
2022-10-19T18:59:07.160Z,100641.09
2022-10-19T19:01:35.877Z,100639.28
2022-10-19T19:04:14.814Z,100634.13
2022-10-19T19:06:45.143Z,100642.63
2022-10-19T19:09:14.469Z,100643.34
2022-10-19T19:11:42.984Z,100641.66
2022-10-19T19:14:14.972Z,100625.88
2022-10-19T19:16:44.664Z,100622.28
2022-10-19T19:19:14.383Z,100600.78
2022-10-19T19:21:45.273Z,100592.56
2022-10-19T19:24:16.356Z,100604.16
2022-10-19T19:26:48.707Z,100592.28
2022-10-19T19:29:18.347Z,100596.75
2022-10-19T19:31:47.345Z,100586.06
2022-10-19T19:34:16.030Z,100583.84
2022-10-19T19:36:48.954Z,100591.66
2022-10-19T19:39:20.369Z,100587.47
2022-10-19T19:41:49.616Z,100578.41
2022-10-19T19:44:19.018Z,100553.56
2022-10-19T19:46:48.643Z,100548.16
2022-10-19T19:49:17.450Z,100545.78
2022-10-19T19:51:47.872Z,100571.19
2022-10-19T19:54:17.511Z,100566.72
2022-10-19T19:56:46.105Z,100571.88
2022-10-19T19:59:14.811Z,100560.59
2022-10-19T20:01:44.475Z,100565.72
2022-10-19T20:04:13.982Z,100552.63
2022-10-19T20:06:44.676Z,100547.19
2022-10-19T20:09:14.931Z,100548.03
2022-10-19T20:11:43.300Z,100540.22
2022-10-19T20:14:12.255Z,100544.41
2022-10-19T20:16:40.746Z,100548.72
2022-10-19T20:19:11.767Z,100538.00
2022-10-19T20:21:40.596Z,100549.69
2022-10-19T20:24:09.953Z,100539.94
2022-10-19T20:26:40.034Z,100524.03
2022-10-19T20:29:11.133Z,100510.78
2022-10-19T20:31:41.928Z,100497.97
2022-10-19T20:34:13.444Z,100517.38
2022-10-19T20:36:47.049Z,100528.53
2022-10-19T20:39:17.380Z,100553.09
2022-10-19T20:41:47.864Z,100561.66
2022-10-19T20:44:17.600Z,100573.06
2022-10-19T20:46:48.161Z,100594.25
2022-10-19T20:49:41.676Z,100603.88
2022-10-19T20:52:11.179Z,100596.19
2022-10-19T20:54:42.452Z,100576.78
2022-10-19T20:57:13.845Z,100582.47
2022-10-19T20:59:46.627Z,100607.09
2022-10-19T21:02:16.686Z,100620.53
2022-10-19T21:04:47.147Z,100619.19
2022-10-19T21:07:17.703Z,100636.69
2022-10-19T21:09:46.584Z,100637.75
2022-10-19T21:12:17.709Z,100619.75
2022-10-19T21:14:48.434Z,100612.06
2022-10-19T21:17:18.380Z,100603.28
2022-10-19T21:19:48.563Z,100570.00
2022-10-19T21:22:17.972Z,100562.13
2022-10-19T21:24:48.148Z,100512.75
2022-10-19T21:27:18.891Z,100527.72
2022-10-19T21:29:49.046Z,100458.22
2022-10-19T21:32:19.128Z,100364.91
2022-10-19T21:34:49.259Z,100492.19
2022-10-19T21:37:17.727Z,100539.81
2022-10-19T21:39:48.151Z,100525.59
2022-10-19T21:42:20.650Z,100514.19
2022-10-19T21:44:54.074Z,100496.63
2022-10-19T21:47:31.063Z,100498.56
2022-10-19T21:50:02.524Z,100507.34
2022-10-19T21:52:32.420Z,100514.31
2022-10-19T21:55:03.289Z,100523.09
2022-10-19T21:57:33.810Z,100521.97
2022-10-19T22:00:02.438Z,100528.97
2022-10-19T22:02:30.904Z,100527.88
2022-10-19T22:04:59.269Z,100545.41
2022-10-19T22:07:27.549Z,100548.91
2022-10-19T22:09:56.823Z,100548.06
2022-10-19T22:12:25.456Z,100550.84
2022-10-19T22:14:55.318Z,100556.97
2022-10-19T22:17:23.669Z,100549.88
2022-10-19T22:19:52.470Z,100560.59
2022-10-19T22:22:21.376Z,100563.25
2022-10-19T22:24:49.968Z,100569.38
2022-10-19T22:27:18.427Z,100561.28
2022-10-19T22:29:47.054Z,100570.06
2022-10-19T22:32:17.286Z,100565.53
2022-10-19T22:34:45.618Z,100569.72
2022-10-19T22:37:14.289Z,100559.13
2022-10-19T22:39:43.083Z,100570.59
2022-10-19T22:43:06.837Z,100569.47
2022-10-19T22:45:35.566Z,100576.44
2022-10-19T22:48:05.801Z,100571.88
2022-10-19T22:50:34.520Z,100570.88
2022-10-19T22:53:03.190Z,100568.25
2022-10-19T22:55:32.995Z,100555.00
2022-10-19T22:58:04.793Z,100559.47
2022-10-19T23:00:33.575Z,100550.81
2022-10-19T23:03:02.020Z,100553.34
2022-10-19T23:05:31.986Z,100556.81
2022-10-19T23:08:00.566Z,100543.44
2022-10-19T23:10:29.602Z,100539.13
2022-10-19T23:12:58.145Z,100541.78
2022-10-19T23:15:26.545Z,100540.94
2022-10-19T23:17:55.167Z,100544.41
2022-10-19T23:20:23.777Z,100539.00
2022-10-19T23:22:54.134Z,100536.34
2022-10-19T23:25:22.648Z,100537.19
2022-10-19T23:27:51.422Z,100534.41
2022-10-19T23:30:20.037Z,100529.13
2022-10-19T23:32:48.423Z,100525.50
2022-10-19T23:35:17.277Z,100511.28
2022-10-19T23:37:45.869Z,100513.09
2022-10-19T23:40:16.259Z,100502.38
2022-10-19T23:42:46.102Z,100511.19
2022-10-19T23:45:15.643Z,100513.53
2022-10-19T23:47:44.286Z,100504.63
2022-10-19T23:50:13.143Z,100493.34
2022-10-19T23:52:41.892Z,100493.34
2022-10-19T23:55:11.346Z,100487.06
2022-10-19T23:57:41.392Z,100487.06
